Latest Weather Observations for McCluer Island

IDD60801

Issued at 1:01 pm CST Sunday 25 September 2016 (issued every 30 minutes, with the page automatically refreshed every 10 minutes)

About weather observations | Map of weather stations | Latest weather observations for NT | Other Formats
Station Details ID: 014274 Name: MCCLUER ISLAND Lat: -11.05 Lon: 132.98 Height: 1.4 m
Data from the previous 72 hours. | See also: Recent months at McCluer Island
Date/Time
CST
Temp
°C
App
Temp
°C
Dew
Point
°C
Rel
Hum
%
Delta-T
°C
Wind Press
QNH
hPa
Press
MSL
hPa
Rain since
9am
mm
Dir  Spd
km/h
Gust
km/h
Spd
kts
Gust
kts
25/01:00pm 30.6 35.9 23.0 64 5.2 CALM 0 4 0 2 1008.4 - 0.0
25/12:30pm 30.5 35.9 23.2 65 5.0 CALM 0 6 0 3 1008.9 - 0.0
25/12:00pm 29.4 34.6 22.9 68 4.4 CALM 0 0 0 0 1009.5 1009.5 0.0
25/11:30am 29.6 34.8 22.8 67 4.6 CALM 0 4 0 2 1009.9 - 0.0
25/11:00am 29.0 34.3 23.0 70 4.1 CALM 0 0 0 0 1010.2 - 0.0
25/10:30am 28.9 34.3 23.3 72 3.8 CALM 0 9 0 5 1010.3 - 0.0
25/10:00am 28.8 34.2 23.2 71 3.8 CALM 0 0 0 0 1010.4 - 0.0
25/09:30am 28.9 34.3 23.3 72 3.8 CALM 0 0 0 0 1010.5 - 0.0
25/09:00am 29.2 34.6 23.2 70 4.1 CALM 0 0 0 0 1010.4 1010.4 0.0
25/08:30am 28.9 34.3 23.3 72 3.8 CALM 0 6 0 3 1010.2 - 0.0
25/08:00am 28.4 33.7 23.1 73 3.6 CALM 0 0 0 0 1009.8 - 0.0
25/07:30am 27.3 32.7 23.3 79 2.7 CALM 0 0 0 0 1009.5 - 0.0
25/07:00am 26.6 32.3 23.7 84 2.0 CALM 0 0 0 0 1009.2 - 0.0
25/06:30am 26.2 31.9 23.7 86 1.7 CALM 0 0 0 0 1008.8 - 0.0
25/06:00am 26.3 32.0 23.8 86 1.7 CALM 0 0 0 0 1008.7 1008.7 0.0
25/05:30am 26.4 32.2 23.9 86 1.7 CALM 0 0 0 0 1008.6 - 0.0
25/05:00am 26.1 31.8 23.8 87 1.6 CALM 0 0 0 0 1008.4 - 0.0
25/04:30am 26.5 32.3 24.0 86 1.7 CALM 0 0 0 0 1008.2 - 0.0
25/04:00am 26.5 32.3 24.0 86 1.7 CALM 0 7 0 4 1008.0 - 0.0
25/03:30am 26.6 32.5 24.1 86 1.7 CALM 0 0 0 0 1008.0 - 0.0
25/03:00am 26.7 32.5 24.0 85 1.9 CALM 0 0 0 0 1008.2 1008.2 0.0
25/02:30am 27.1 33.1 24.2 84 2.0 CALM 0 0 0 0 1008.0 - 0.0
25/02:00am 27.0 32.9 24.1 84 2.0 CALM 0 0 0 0 1008.0 - 0.0
25/01:30am 27.0 32.9 24.1 84 2.0 CALM 0 0 0 0 1008.2 - 0.0
25/01:00am 27.2 32.6 24.5 85 1.9 N 4 7 2 4 1008.3 - 0.0
25/12:30am 27.3 32.1 24.4 84 2.0 N 7 9 4 5 1008.5 - 0.0
25/12:00am 27.4 31.2 24.7 85 1.9 N 13 15 7 8 1008.7 1008.7 0.0
 
Date/Time
CST
Temp
°C
App
Temp
°C
Dew
Point
°C
Rel
Hum
%
Delta-T
°C
Wind Press
QNH
hPa
Press
MSL
hPa
Rain since
9am
mm
Dir  Spd
km/h
Gust
km/h
Spd
kts
Gust
kts
24/11:30pm 27.6 30.3 24.8 85 2.0 NNE 19 20 10 11 1008.9 - 0.0
24/11:00pm 27.7 30.3 24.9 85 2.0 NNE 20 24 11 13 1009.1 - 0.0
24/10:30pm 27.6 30.2 24.6 84 2.1 NNE 19 20 10 11 1009.1 - 0.0
24/10:00pm 27.7 30.0 24.5 83 2.2 NE 20 24 11 13 1008.9 - 0.0
24/09:30pm 27.8 30.2 24.6 83 2.2 NE 20 24 11 13 1008.7 - 0.0
24/09:00pm 27.8 29.7 24.4 82 2.4 NNE 22 26 12 14 1008.4 1008.4 0.0
24/08:30pm 27.9 30.1 24.3 81 2.5 NE 20 24 11 13 1008.2 - 0.0
24/08:00pm 27.9 30.0 23.7 78 2.9 NE 19 22 10 12 1007.9 - 0.0
24/07:30pm 27.8 29.7 23.4 77 3.0 ENE 19 20 10 11 1007.7 - 0.0
24/07:00pm 27.9 30.6 23.5 77 3.0 E 15 19 8 10 1007.3 - 0.0
24/06:30pm 28.2 30.8 23.3 75 3.4 E 15 17 8 9 1007.1 - 0.0
24/06:00pm 28.3 30.7 23.0 73 3.6 E 15 19 8 10 1007.0 1007.0 0.0
24/05:30pm 28.6 31.1 23.1 72 3.8 E 15 19 8 10 1006.6 - 0.0
24/05:00pm 29.1 32.1 23.3 71 4.0 E 13 19 7 10 1006.4 - 0.0
24/04:30pm 29.1 32.2 22.8 69 4.3 E 11 15 6 8 1006.5 - 0.0
24/04:00pm 29.5 33.2 23.2 69 4.3 E 9 15 5 8 1006.6 - 0.0
24/03:30pm 29.0 31.3 22.7 69 4.3 E 15 17 8 9 1006.8 - 0.0
24/03:00pm 29.2 31.8 22.7 68 4.4 E 13 17 7 9 1007.0 1007.0 0.0
24/02:30pm 29.5 32.4 22.5 66 4.8 E 11 15 6 8 1007.4 - 0.0
24/02:00pm 29.5 32.9 22.7 67 4.6 E 9 13 5 7 1008.0 - 0.0
24/01:30pm 29.3 32.6 22.5 67 4.6 ENE 9 11 5 6 1008.5 - 0.0
24/01:00pm 29.7 33.1 22.7 66 4.8 E 9 13 5 7 1009.1 - 0.0
24/12:30pm 30.1 33.8 23.3 67 4.7 E 9 13 5 7 1009.5 - 0.0
24/12:00pm 29.9 33.4 22.9 66 4.8 E 9 11 5 6 1010.0 1010.0 0.0
24/11:30am 29.3 32.2 22.5 67 4.6 E 11 13 6 7 1010.3 - 0.0
24/11:00am 29.5 32.5 22.7 67 4.6 E 11 13 6 7 1010.7 - 0.0
24/10:30am 29.2 32.1 22.4 66 4.6 E 11 13 6 7 1010.9 - 0.0
24/10:00am 29.5 31.8 22.7 67 4.6 E 15 17 8 9 1011.2 - 0.0
24/09:30am 29.4 31.4 22.9 68 4.4 E 17 19 9 10 1011.3 - 0.0
24/09:00am 28.9 31.0 22.4 68 4.4 E 15 19 8 10 1011.3 1011.3 0.0
24/08:30am 28.6 29.9 22.3 68 4.3 E 19 20 10 11 1010.9 - 0.0
24/08:00am 28.5 29.9 22.5 70 4.1 E 19 22 10 12 1010.8 - 0.0
24/07:30am 28.2 29.3 22.4 71 3.9 E 20 24 11 13 1010.4 - 0.0
24/07:00am 27.9 29.2 22.6 73 3.6 E 20 22 11 12 1010.1 - 0.0
24/06:30am 27.5 28.6 22.4 73 3.4 E 20 24 11 13 1009.7 - 0.0
24/06:00am 27.4 28.8 22.6 75 3.3 E 19 22 10 12 1009.6 1009.6 0.0
24/05:30am 27.7 29.5 23.3 77 3.0 E 19 20 10 11 1009.2 - 0.0
24/05:00am 27.6 29.8 23.2 77 3.0 E 17 20 9 11 1009.0 - 0.0
24/04:30am 27.5 29.6 23.7 80 2.6 E 19 22 10 12 1008.7 - 0.0
24/04:00am 27.5 29.6 23.7 80 2.6 ENE 19 22 10 12 1008.4 - 0.0
24/03:30am 27.7 29.8 24.1 81 2.5 ENE 20 24 11 13 1008.5 - 0.0
24/03:00am 27.7 29.8 24.1 81 2.5 ENE 20 24 11 13 1008.7 1008.7 0.0
24/02:30am 27.8 29.6 24.2 81 2.5 ENE 22 26 12 14 1008.8 - 0.0
24/02:00am 28.0 29.9 24.4 81 2.5 NE 22 26 12 14 1009.2 - 0.0
24/01:30am 27.7 29.4 24.1 81 2.5 NE 22 26 12 14 1009.2 - 0.0
24/01:00am 27.6 29.5 24.4 83 2.2 NE 22 26 12 14 1009.3 - 0.0
24/12:30am 27.8 29.8 24.6 83 2.2 NE 22 26 12 14 1009.6 - 0.0
24/12:00am 27.9 30.0 24.7 83 2.2 NE 22 26 12 14 1009.8 1009.8 0.0
 
Date/Time
CST
Temp
°C
App
Temp
°C
Dew
Point
°C
Rel
Hum
%
Delta-T
°C
Wind Press
QNH
hPa
Press
MSL
hPa
Rain since
9am
mm
Dir  Spd
km/h
Gust
km/h
Spd
kts
Gust
kts
23/11:30pm 27.8 29.8 24.6 83 2.2 NE 22 26 12 14 1009.6 - 0.0
23/11:00pm 27.9 29.2 24.7 83 2.2 NNE 26 30 14 16 1009.7 - 0.0
23/10:30pm 28.1 29.2 24.9 83 2.2 NNE 28 32 15 17 1009.6 - 0.0
23/10:00pm 28.1 28.9 24.5 81 2.5 NNE 28 32 15 17 1009.2 - 0.0
23/09:30pm 27.9 28.4 23.9 79 2.8 NNE 28 35 15 19 1009.1 - 0.0
23/09:00pm 28.0 29.4 24.2 80 2.6 NE 24 28 13 15 1009.0 1009.0 0.0
23/08:30pm 27.9 28.3 23.7 78 2.9 NE 28 33 15 18 1008.7 - 0.0
23/08:00pm 28.3 29.8 24.9 82 2.4 NE 26 32 14 17 1008.3 - 0.0
23/07:30pm 27.9 28.5 24.1 80 2.6 ENE 28 32 15 17 1008.0 - 0.0
23/07:00pm 27.9 28.8 23.9 79 2.8 ENE 26 30 14 16 1007.9 - 0.0
23/06:30pm 28.1 29.1 24.1 79 2.8 ENE 26 30 14 16 1007.9 - 0.0
23/06:00pm 28.4 29.7 24.0 77 3.0 ENE 24 30 13 16 1007.7 1007.7 0.0
23/05:30pm 28.4 30.0 23.8 76 3.2 E 22 24 12 13 1007.5 - 0.0
23/05:00pm 28.6 30.1 23.7 75 3.4 E 22 26 12 14 1007.2 - 0.0
23/04:30pm 29.2 31.3 24.1 74 3.5 E 20 24 11 13 1007.1 - 0.0
23/04:00pm 29.1 31.7 24.0 74 3.5 E 17 22 9 12 1007.3 - 0.0
23/03:30pm 29.2 31.3 24.1 74 3.5 E 20 26 11 14 1007.4 - 0.0
23/03:00pm 29.5 32.0 24.4 74 3.6 E 19 24 10 13 1007.8 1007.8 0.0
23/02:30pm 29.5 31.6 24.1 72 3.7 E 20 24 11 13 1008.0 - 0.0
23/02:00pm 29.8 32.3 24.7 74 3.6 E 20 24 11 13 1008.4 - 0.0
23/01:30pm 29.9 32.4 24.8 74 3.6 E 20 24 11 13 1009.0 - 0.0
23/01:00pm 29.8 32.4 24.9 75 3.4 E 20 22 11 12 1009.4 - 0.0
23/12:30pm 30.0 32.9 25.1 75 3.4 E 19 22 10 12 1009.9 - 0.0
23/12:00pm 29.5 32.2 24.8 76 3.3 E 19 20 10 11 1010.4 1010.4 0.0
23/11:30am 29.3 32.2 24.4 75 3.4 E 17 20 9 11 1010.8 - 0.0
23/11:00am 29.1 31.3 24.2 75 3.4 E 20 22 11 12 1011.3 - 0.0
23/10:30am 29.5 31.7 24.8 76 3.3 E 22 26 12 14 1011.7 - 0.0
23/10:00am 28.5 30.0 24.3 78 2.9 E 24 28 13 15 1012.0 - 0.0
23/09:30am 28.5 29.7 24.5 79 2.8 E 26 30 14 16 1012.0 - 0.0
23/09:00am 28.3 29.5 24.5 80 2.6 E 26 30 14 16 1012.0 1012.0 0.6
23/08:30am 27.7 30.2 25.3 87 1.7 E 22 26 12 14 1011.8 - 0.6
23/08:00am 27.0 29.8 25.0 89 1.4 E 19 22 10 12 1011.6 - 0.6
23/07:30am 26.5 28.3 24.3 88 1.5 ENE 22 30 12 16 1011.3 - 0.6
23/07:00am 26.9 26.1 23.4 81 2.4 E 33 41 18 22 1011.0 - 0.6
23/06:30am 25.1 24.8 23.2 89 1.3 ESE 30 35 16 19 1010.8 - 0.6
23/06:10am 26.2 22.4 23.1 83 2.1 ESE 48 52 26 28 1010.6 - 0.0
23/06:05am 27.6 28.2 24.2 82 2.4 E 28 50 15 27 1010.5 - 0.0
23/06:00am 27.9 29.2 24.7 83 2.2 E 26 32 14 17 1010.4 1010.4 0.0
23/05:30am 27.7 28.9 24.5 83 2.2 ENE 26 28 14 15 1009.9 - 0.0
23/05:00am 27.7 28.8 24.3 82 2.4 E 26 30 14 16 1009.9 - 0.0
23/04:30am 27.6 29.0 24.2 82 2.4 E 24 28 13 15 1009.6 - 0.0
23/04:00am 27.7 29.0 24.1 81 2.5 E 24 30 13 16 1009.5 - 0.0
23/03:30am 27.8 29.2 24.2 81 2.5 E 24 30 13 16 1009.5 - 0.0
23/03:00am 27.8 29.2 24.2 81 2.5 E 24 26 13 14 1009.6 1009.6 0.0
23/02:30am 27.8 29.8 24.0 80 2.6 E 20 26 11 14 1009.6 - 0.0
23/02:00am 27.8 29.9 23.8 79 2.8 E 19 22 10 12 1009.8 - 0.0
23/01:30am 27.7 29.6 23.7 79 2.7 ENE 20 24 11 13 1009.9 - 0.0
23/01:00am 28.1 29.8 24.1 79 2.8 ENE 22 26 12 14 1010.2 - 0.0
23/12:30am 28.0 29.6 23.8 78 2.9 ENE 22 24 12 13 1010.6 - 0.0
23/12:00am 28.1 29.5 23.5 76 3.2 ENE 22 28 12 15 1010.7 1010.7 0.0
 
Date/Time
CST
Temp
°C
App
Temp
°C
Dew
Point
°C
Rel
Hum
%
Delta-T
°C
Wind Press
QNH
hPa
Press
MSL
hPa
Rain since
9am
mm
Dir  Spd
km/h
Gust
km/h
Spd
kts
Gust
kts
22/11:30pm 28.2 29.8 23.8 77 3.0 ENE 22 26 12 14 1010.7 - 0.0
22/11:00pm 28.1 29.2 23.7 77 3.0 ENE 24 26 13 14 1010.8 - 0.0
22/10:30pm 27.7 28.6 23.3 77 3.0 ENE 24 28 13 15 1010.8 - 0.0
22/10:00pm 28.0 29.6 23.8 78 2.9 ENE 22 26 12 14 1010.7 - 0.0
22/09:30pm 27.8 29.1 23.4 77 3.0 E 22 26 12 14 1010.6 - 0.0
22/09:00pm 27.9 29.6 24.1 80 2.6 E 22 24 12 13 1010.7 1010.7 0.0
22/08:30pm 27.9 30.1 24.3 81 2.5 E 20 24 11 13 1010.6 - 0.0
22/08:00pm 27.9 30.0 24.1 80 2.6 E 20 24 11 13 1010.6 - 0.0
22/07:30pm 27.9 29.9 23.9 79 2.8 E 20 24 11 13 1010.3 - 0.0
22/07:00pm 28.0 29.7 24.0 79 2.8 E 22 26 12 14 1010.0 - 0.0
22/06:30pm 28.0 29.1 23.6 77 3.0 E 24 26 13 14 1009.7 - 0.0
22/06:00pm 28.2 29.5 24.0 78 2.9 E 24 28 13 15 1009.4 1009.4 0.0
22/05:30pm 28.3 29.2 23.9 77 3.0 E 26 30 14 16 1009.5 - 0.0
22/05:00pm 28.4 30.2 24.2 78 2.9 E 22 26 12 14 1009.3 - 0.0
22/04:30pm 29.1 30.1 24.2 75 3.4 E 26 32 14 17 1009.4 - 0.0
22/04:00pm 29.1 30.6 24.4 76 3.3 E 24 30 13 16 1009.5 - 0.0
22/03:30pm 28.7 29.6 24.0 76 3.3 E 26 32 14 17 1009.5 - 0.0
22/03:00pm 29.2 29.9 24.3 75 3.4 ESE 28 32 15 17 1009.7 1009.7 0.0
22/02:30pm 29.1 30.1 24.2 75 3.4 ESE 26 32 14 17 1009.9 - 0.0
22/02:00pm 30.0 31.4 24.2 71 4.0 ESE 24 28 13 15 1010.2 - 0.0
22/01:30pm 30.2 32.1 24.4 71 4.0 E 22 26 12 14 1010.5 - 0.0

Other Formats:

Comma delimited format used in spreadsheet applications
http://www.bom.gov.au/fwo/IDD60801/IDD60801.94135.axf

JavaScript Object Notation format (JSON) in row-major order
http://www.bom.gov.au/fwo/IDD60801/IDD60801.94135.json